createdAt,value
2023-01-25T00:00:42.857Z,7.20
2023-01-25T00:01:42.855Z,8.10
2023-01-25T00:02:42.876Z,6.50
2023-01-25T00:03:42.830Z,6.60
2023-01-25T00:04:42.815Z,7.80
2023-01-25T00:05:42.812Z,6.70
2023-01-25T00:06:42.801Z,6.40
2023-01-25T00:07:42.787Z,6.40
2023-01-25T00:08:42.778Z,8.30
2023-01-25T00:09:42.773Z,7.70
2023-01-25T00:10:42.756Z,8.50
2023-01-25T00:11:42.752Z,7.10
2023-01-25T00:12:42.732Z,8.60
2023-01-25T00:13:42.734Z,9.00
2023-01-25T00:14:42.712Z,7.20
2023-01-25T00:15:42.705Z,6.30
2023-01-25T00:16:42.724Z,7.30
2023-01-25T00:17:42.700Z,6.10
2023-01-25T00:18:42.677Z,7.10
2023-01-25T00:19:42.679Z,7.30
2023-01-25T00:20:42.653Z,7.10
2023-01-25T00:21:42.653Z,6.90
2023-01-25T00:22:42.636Z,8.40
2023-01-25T00:23:42.636Z,7.20
2023-01-25T00:24:42.613Z,7.70
2023-01-25T00:25:42.611Z,6.60
2023-01-25T00:26:42.592Z,5.80
2023-01-25T00:27:42.592Z,6.40
2023-01-25T00:28:42.595Z,9.80
2023-01-25T00:29:42.567Z,6.60
2023-01-25T00:30:42.554Z,8.20
2023-01-25T00:31:42.710Z,6.40
2023-01-25T00:32:42.683Z,7.80
2023-01-25T00:33:42.531Z,7.20
2023-01-25T00:34:42.522Z,8.80
2023-01-25T00:35:42.518Z,6.70
2023-01-25T00:36:42.491Z,7.90
2023-01-25T00:37:42.499Z,7.10
2023-01-25T00:38:42.478Z,8.20
2023-01-25T00:39:42.474Z,6.50
2023-01-25T00:40:42.456Z,7.40
2023-01-25T00:41:42.454Z,6.70
2023-01-25T00:42:42.439Z,7.30
2023-01-25T00:43:42.435Z,7.40
2023-01-25T00:44:42.410Z,7.90
2023-01-25T00:45:42.414Z,7.40
2023-01-25T00:46:42.396Z,8.60
2023-01-25T00:47:42.392Z,6.50
2023-01-25T00:48:42.378Z,7.00
2023-01-25T00:49:42.365Z,7.60
2023-01-25T00:50:42.354Z,7.00
2023-01-25T00:51:42.352Z,7.00
2023-01-25T00:52:42.339Z,8.00
2023-01-25T00:53:42.333Z,6.60
2023-01-25T00:54:42.320Z,6.80
2023-01-25T00:55:42.332Z,9.20
2023-01-25T00:56:42.289Z,7.30
2023-01-25T00:57:42.281Z,8.30
2023-01-25T00:58:42.274Z,6.60
2023-01-25T00:59:42.262Z,7.80
2023-01-25T01:00:42.260Z,7.10
2023-01-25T01:01:42.257Z,7.30
2023-01-25T01:02:42.223Z,6.10
2023-01-25T01:03:42.227Z,7.70
2023-01-25T01:04:42.293Z,7.00
2023-01-25T01:05:42.204Z,7.00
2023-01-25T01:06:42.187Z,6.50
2023-01-25T01:07:42.185Z,8.00
2023-01-25T01:08:42.190Z,8.00
2023-01-25T01:09:42.165Z,9.70
2023-01-25T01:10:42.146Z,7.20
2023-01-25T01:11:42.143Z,7.60
2023-01-25T01:12:42.138Z,7.00
2023-01-25T01:13:42.133Z,6.50
2023-01-25T01:14:42.104Z,6.50
2023-01-25T01:15:42.104Z,8.10
2023-01-25T01:16:42.153Z,10.30
2023-01-25T01:17:42.078Z,6.70
2023-01-25T01:18:42.074Z,6.80
2023-01-25T01:19:42.061Z,8.10
2023-01-25T01:20:42.041Z,8.10
2023-01-25T01:21:42.050Z,7.60
2023-01-25T01:22:42.033Z,8.20
2023-01-25T01:23:42.022Z,6.80
2023-01-25T01:24:42.007Z,8.30
2023-01-25T01:25:41.998Z,7.80
2023-01-25T01:26:41.983Z,9.60
2023-01-25T01:27:41.976Z,6.90
2023-01-25T01:28:41.981Z,7.50
2023-01-25T01:29:41.969Z,7.70
2023-01-25T01:30:41.940Z,7.70
2023-01-25T01:31:42.036Z,8.30
2023-01-25T01:32:42.007Z,6.40
2023-01-25T01:33:41.919Z,7.20
2023-01-25T01:34:41.899Z,8.30
2023-01-25T01:35:41.904Z,8.40
2023-01-25T01:36:41.882Z,6.30
2023-01-25T01:37:41.873Z,7.90
2023-01-25T01:38:41.881Z,7.00
2023-01-25T01:39:41.854Z,9.00
2023-01-25T01:40:41.844Z,8.20
2023-01-25T01:41:41.827Z,7.20
2023-01-25T01:42:41.852Z,7.90
2023-01-25T01:43:41.834Z,7.00
2023-01-25T01:44:41.819Z,7.30
2023-01-25T01:45:41.851Z,9.30
2023-01-25T01:46:41.793Z,6.10
2023-01-25T01:47:41.775Z,7.80
2023-01-25T01:48:41.776Z,5.20
2023-01-25T01:49:41.755Z,7.80
2023-01-25T01:50:41.747Z,8.60
2023-01-25T01:51:41.743Z,9.10
2023-01-25T01:52:41.729Z,7.40
2023-01-25T01:53:41.732Z,7.10
2023-01-25T01:54:41.708Z,8.10
2023-01-25T01:55:41.693Z,7.70
2023-01-25T01:56:41.730Z,6.20
2023-01-25T01:57:41.682Z,8.30
2023-01-25T01:58:41.689Z,7.60
2023-01-25T01:59:41.651Z,8.90
2023-01-25T02:00:41.667Z,6.80
2023-01-25T02:01:41.688Z,7.90
2023-01-25T02:02:41.686Z,7.30
2023-01-25T02:03:41.616Z,7.60
2023-01-25T02:04:41.599Z,9.40
2023-01-25T02:05:41.588Z,6.30
2023-01-25T02:06:41.582Z,7.90
2023-01-25T02:07:41.571Z,7.10
2023-01-25T02:08:41.594Z,8.50
2023-01-25T02:09:41.546Z,7.90
2023-01-25T02:10:41.540Z,6.90
2023-01-25T02:11:41.533Z,7.40
2023-01-25T02:12:41.528Z,9.70
2023-01-25T02:13:41.524Z,7.30
2023-01-25T02:14:41.504Z,7.70
2023-01-25T02:15:41.531Z,8.50
2023-01-25T02:16:41.487Z,8.50
2023-01-25T02:17:41.468Z,9.50
2023-01-25T02:18:41.510Z,7.00
2023-01-25T02:19:41.447Z,9.70
2023-01-25T02:20:41.436Z,8.10
2023-01-25T02:21:41.440Z,8.90
2023-01-25T02:22:41.415Z,7.70
2023-01-25T02:23:41.450Z,6.50
2023-01-25T02:24:41.398Z,8.10
2023-01-25T02:25:41.417Z,7.40
2023-01-25T02:26:41.389Z,10.60
2023-01-25T02:27:41.370Z,7.70
2023-01-25T02:28:41.361Z,10.00
2023-01-25T02:29:41.348Z,9.80
2023-01-25T02:30:41.366Z,9.80
2023-01-25T02:31:41.474Z,8.60
2023-01-25T02:32:41.322Z,9.50
2023-01-25T02:33:41.320Z,9.70
2023-01-25T02:34:41.302Z,7.50
2023-01-25T02:35:41.294Z,6.70
2023-01-25T02:36:41.285Z,6.90
2023-01-25T02:37:41.260Z,7.90
2023-01-25T02:38:41.259Z,9.30
2023-01-25T02:39:41.247Z,7.70
2023-01-25T02:40:41.241Z,8.30
2023-01-25T02:41:41.231Z,8.20
2023-01-25T02:42:41.210Z,6.80
2023-01-25T02:43:41.194Z,7.20
2023-01-25T02:44:41.197Z,8.10
2023-01-25T02:45:41.179Z,9.20
2023-01-25T02:46:41.187Z,8.60
2023-01-25T02:47:41.164Z,10.40
2023-01-25T02:48:41.152Z,8.70
2023-01-25T02:49:41.150Z,9.70
2023-01-25T02:50:41.134Z,9.20
2023-01-25T02:51:41.117Z,8.60
2023-01-25T02:52:41.112Z,7.30
2023-01-25T02:53:41.100Z,6.80
2023-01-25T02:54:41.109Z,10.40
2023-01-25T02:55:41.075Z,8.10
2023-01-25T02:56:41.082Z,9.50
2023-01-25T02:57:41.060Z,7.40
2023-01-25T02:58:41.049Z,8.90
2023-01-25T02:59:41.038Z,9.20
2023-01-25T03:00:41.038Z,8.90
2023-01-25T03:01:41.089Z,8.60
2023-01-25T03:02:41.049Z,8.60
2023-01-25T03:03:40.995Z,11.10
2023-01-25T03:04:41.001Z,9.10
2023-01-25T03:05:40.989Z,8.50
2023-01-25T03:06:40.978Z,9.50
2023-01-25T03:07:40.952Z,8.60
2023-01-25T03:08:40.943Z,9.30
2023-01-25T03:09:40.939Z,7.90
2023-01-25T03:10:40.941Z,9.40
2023-01-25T03:11:40.912Z,8.80
2023-01-25T03:12:40.923Z,10.40
2023-01-25T03:13:40.899Z,11.50
2023-01-25T03:14:41.009Z,10.20
2023-01-25T03:15:40.869Z,7.70
2023-01-25T03:16:40.886Z,9.90
2023-01-25T03:17:40.850Z,8.90
2023-01-25T03:18:40.856Z,9.00
2023-01-25T03:19:40.835Z,8.80
2023-01-25T03:20:40.821Z,9.10
2023-01-25T03:21:40.819Z,7.90
2023-01-25T03:22:40.806Z,8.60
2023-01-25T03:23:40.811Z,9.60
2023-01-25T03:24:40.794Z,11.40
2023-01-25T03:25:40.768Z,8.90
2023-01-25T03:26:40.764Z,11.90
2023-01-25T03:27:40.749Z,9.00
2023-01-25T03:28:40.747Z,12.00
2023-01-25T03:29:40.727Z,8.50
2023-01-25T03:30:40.733Z,10.80
2023-01-25T03:31:40.804Z,10.70
2023-01-25T03:32:40.707Z,8.30
2023-01-25T03:33:40.688Z,8.50
2023-01-25T03:34:40.684Z,9.10
2023-01-25T03:35:40.668Z,11.30
2023-01-25T03:36:40.663Z,8.70
2023-01-25T03:37:40.649Z,10.90
2023-01-25T03:38:40.642Z,9.30
2023-01-25T03:39:40.633Z,10.30
2023-01-25T03:40:40.626Z,11.00
2023-01-25T03:41:40.606Z,11.10
2023-01-25T03:42:40.601Z,9.90
2023-01-25T03:43:40.585Z,10.30
2023-01-25T03:44:40.588Z,11.50
2023-01-25T03:45:40.564Z,10.30
2023-01-25T03:46:40.624Z,12.00
2023-01-25T03:47:40.541Z,9.10
2023-01-25T03:48:40.540Z,8.40
2023-01-25T03:49:40.556Z,11.60
2023-01-25T03:50:40.522Z,10.20
2023-01-25T03:51:40.520Z,10.00
2023-01-25T03:52:40.500Z,12.50
2023-01-25T03:53:40.486Z,8.80
2023-01-25T03:54:40.496Z,11.20
2023-01-25T03:55:40.861Z,10.60
2023-01-25T03:56:40.456Z,11.20
2023-01-25T03:57:40.438Z,9.80
2023-01-25T03:58:40.446Z,10.00
2023-01-25T03:59:40.461Z,12.40
2023-01-25T04:00:40.447Z,10.70
2023-01-25T04:01:40.401Z,12.30
2023-01-25T04:02:40.418Z,12.00
2023-01-25T04:03:40.390Z,10.80
2023-01-25T04:04:40.385Z,11.80
2023-01-25T04:05:40.364Z,12.00
2023-01-25T04:06:40.354Z,14.30
2023-01-25T04:07:40.358Z,10.70
2023-01-25T04:08:40.336Z,11.40
2023-01-25T04:09:40.727Z,12.60
2023-01-25T04:10:40.439Z,12.10
2023-01-25T04:11:40.296Z,10.80
2023-01-25T04:12:40.292Z,10.60
2023-01-25T04:13:40.279Z,9.60
2023-01-25T04:14:44.661Z,10.10
2023-01-25T04:15:40.255Z,9.90
2023-01-25T04:16:40.269Z,10.30
2023-01-25T04:17:40.237Z,11.10
2023-01-25T04:18:40.264Z,10.90
2023-01-25T04:19:40.231Z,9.60
2023-01-25T04:20:41.684Z,8.70
2023-01-25T04:21:40.205Z,8.90
2023-01-25T04:22:40.191Z,9.30
2023-01-25T04:23:40.184Z,12.90
2023-01-25T04:24:40.186Z,9.90
2023-01-25T04:25:40.161Z,10.40
2023-01-25T04:26:40.150Z,8.00
2023-01-25T04:27:40.140Z,10.40
2023-01-25T04:28:40.127Z,8.70
2023-01-25T04:29:41.883Z,8.50
2023-01-25T04:30:40.113Z,7.70
2023-01-25T04:31:40.164Z,9.10
2023-01-25T04:32:40.271Z,8.10
2023-01-25T04:33:40.074Z,8.40
2023-01-25T04:34:40.087Z,10.00
2023-01-25T04:35:40.053Z,9.40
2023-01-25T04:36:40.046Z,10.70
2023-01-25T04:37:40.052Z,8.80
2023-01-25T04:38:40.029Z,8.90
2023-01-25T04:39:40.027Z,9.30
2023-01-25T04:40:40.012Z,9.50
2023-01-25T04:41:39.989Z,9.30
2023-01-25T04:42:39.989Z,8.50
2023-01-25T04:43:39.978Z,10.50
2023-01-25T04:44:39.977Z,9.70
2023-01-25T04:45:39.985Z,10.80
2023-01-25T04:46:39.951Z,10.30
2023-01-25T04:47:39.941Z,10.60
2023-01-25T04:48:39.928Z,9.10
2023-01-25T04:49:39.908Z,8.80
2023-01-25T04:50:39.921Z,9.80
2023-01-25T04:51:39.923Z,9.50
2023-01-25T04:52:39.891Z,7.60
2023-01-25T04:53:39.870Z,8.80
2023-01-25T04:54:39.874Z,8.00
2023-01-25T04:55:39.859Z,10.00
2023-01-25T04:56:39.839Z,9.90
2023-01-25T04:57:39.831Z,8.40
2023-01-25T04:58:39.823Z,8.20
2023-01-25T04:59:39.805Z,7.40
2023-01-25T05:00:39.764Z,8.00
2023-01-25T05:01:39.798Z,9.20
2023-01-25T05:02:39.788Z,9.70
2023-01-25T05:03:39.717Z,8.50
2023-01-25T05:04:39.709Z,8.50
2023-01-25T05:05:39.702Z,8.00
2023-01-25T05:06:39.707Z,8.30
2023-01-25T05:07:39.677Z,7.30
2023-01-25T05:08:39.671Z,8.10
2023-01-25T05:09:39.657Z,7.90
2023-01-25T05:10:39.650Z,8.30
2023-01-25T05:11:39.635Z,7.90
2023-01-25T05:12:39.633Z,8.90
2023-01-25T05:13:39.635Z,8.80
2023-01-25T05:14:39.609Z,8.10
2023-01-25T05:15:39.596Z,9.80
2023-01-25T05:16:39.629Z,10.00
2023-01-25T05:17:39.601Z,8.70
2023-01-25T05:18:48.561Z,7.80
2023-01-25T05:19:39.572Z,8.50
2023-01-25T05:20:39.560Z,7.80
2023-01-25T05:21:39.537Z,8.50
2023-01-25T05:22:39.536Z,9.50
2023-01-25T05:23:39.509Z,8.00
2023-01-25T05:24:39.512Z,6.60
2023-01-25T05:25:39.496Z,8.90
2023-01-25T05:26:39.485Z,8.80
2023-01-25T05:27:39.487Z,7.60
2023-01-25T05:28:39.462Z,11.20
2023-01-25T05:29:39.502Z,8.60
2023-01-25T05:30:39.548Z,9.10
2023-01-25T05:31:39.526Z,7.80
2023-01-25T05:32:39.483Z,7.90
2023-01-25T05:33:39.471Z,7.70
2023-01-25T05:34:39.474Z,7.80
2023-01-25T05:35:39.446Z,7.40
2023-01-25T05:36:39.437Z,6.90
2023-01-25T05:37:39.426Z,7.20
2023-01-25T05:38:39.425Z,9.60
2023-01-25T05:39:39.399Z,7.80
2023-01-25T05:40:39.419Z,8.10
2023-01-25T05:41:39.379Z,9.00
2023-01-25T05:42:39.380Z,7.20
2023-01-25T05:43:39.363Z,9.10
2023-01-25T05:44:39.360Z,9.10
2023-01-25T05:45:39.344Z,6.00
2023-01-25T05:46:39.339Z,6.20
2023-01-25T05:47:39.332Z,9.00
2023-01-25T05:48:39.312Z,7.60
2023-01-25T05:49:39.305Z,8.30
2023-01-25T05:50:39.301Z,8.80
2023-01-25T05:51:39.286Z,10.50
2023-01-25T05:52:39.268Z,9.90
2023-01-25T05:53:39.277Z,8.20
2023-01-25T05:54:39.248Z,6.80
2023-01-25T05:55:39.254Z,7.80
2023-01-25T05:56:39.231Z,8.20
2023-01-25T05:57:39.218Z,6.70
2023-01-25T05:58:39.207Z,6.80
2023-01-25T05:59:39.232Z,6.80
2023-01-25T06:00:39.651Z,7.00
2023-01-25T06:01:39.191Z,6.60
2023-01-25T06:02:39.275Z,9.30
2023-01-25T06:03:39.184Z,8.10
2023-01-25T06:04:39.102Z,6.90
2023-01-25T06:05:39.093Z,7.40
2023-01-25T06:06:39.072Z,6.80
2023-01-25T06:07:39.077Z,7.80
2023-01-25T06:08:39.054Z,8.50
2023-01-25T06:09:39.047Z,7.40
2023-01-25T06:10:39.244Z,7.80
2023-01-25T06:11:39.082Z,7.50
2023-01-25T06:12:39.072Z,7.10
2023-01-25T06:13:39.057Z,7.30
2023-01-25T06:14:39.047Z,7.10
2023-01-25T06:15:39.100Z,9.30
2023-01-25T06:16:39.047Z,7.60
2023-01-25T06:17:39.022Z,8.40
2023-01-25T06:18:39.006Z,8.10
2023-01-25T06:19:38.998Z,8.60
2023-01-25T06:20:38.985Z,8.50
2023-01-25T06:21:38.988Z,8.90
2023-01-25T06:22:38.963Z,7.80
2023-01-25T06:23:38.956Z,9.30
2023-01-25T06:24:38.941Z,8.50
2023-01-25T06:25:38.943Z,10.10
2023-01-25T06:26:38.923Z,8.80
2023-01-25T06:27:38.913Z,8.30
2023-01-25T06:28:38.900Z,8.90
2023-01-25T06:29:38.900Z,7.80
2023-01-25T06:30:38.885Z,9.50
2023-01-25T06:31:39.066Z,7.10
2023-01-25T06:32:38.862Z,8.00
2023-01-25T06:33:38.857Z,7.30
2023-01-25T06:34:38.842Z,8.10
2023-01-25T06:35:38.840Z,9.80
2023-01-25T06:36:38.828Z,9.60
2023-01-25T06:37:38.815Z,9.80
2023-01-25T06:38:38.763Z,8.60
2023-01-25T06:39:38.740Z,9.30
2023-01-25T06:40:38.737Z,10.90
2023-01-25T06:41:38.720Z,11.20
2023-01-25T06:42:38.717Z,8.30
2023-01-25T06:43:38.699Z,10.60
2023-01-25T06:44:38.683Z,10.10
2023-01-25T06:45:38.683Z,9.60
2023-01-25T06:46:38.691Z,8.90
2023-01-25T06:47:38.722Z,10.30
2023-01-25T06:48:38.700Z,9.60
2023-01-25T06:49:38.699Z,9.40
2023-01-25T06:50:38.682Z,9.00
2023-01-25T06:51:38.643Z,10.80
2023-01-25T06:52:38.628Z,10.80
2023-01-25T06:53:38.615Z,8.60
2023-01-25T06:54:38.591Z,9.10
2023-01-25T06:55:38.597Z,9.20
2023-01-25T06:56:38.563Z,9.70
2023-01-25T06:57:38.579Z,8.70
2023-01-25T06:58:38.543Z,8.40
2023-01-25T06:59:38.591Z,8.50
2023-01-25T07:00:38.576Z,9.40
2023-01-25T07:01:38.595Z,9.10
2023-01-25T07:02:38.531Z,9.70
2023-01-25T07:03:38.504Z,9.40
2023-01-25T07:04:38.480Z,9.20
2023-01-25T07:05:38.497Z,9.20
2023-01-25T07:06:38.468Z,10.20
2023-01-25T07:07:38.459Z,9.50
2023-01-25T07:08:38.446Z,11.00
2023-01-25T07:09:38.446Z,10.40
2023-01-25T07:10:38.438Z,8.90
2023-01-25T07:11:38.418Z,10.20
2023-01-25T07:12:38.398Z,8.90
2023-01-25T07:13:38.391Z,9.50
2023-01-25T07:14:38.378Z,8.80
2023-01-25T07:15:38.390Z,8.40
2023-01-25T07:16:38.375Z,9.10
2023-01-25T07:17:38.372Z,9.20
2023-01-25T07:18:38.361Z,9.20
2023-01-25T07:19:38.330Z,8.10
2023-01-25T07:20:38.335Z,8.90
2023-01-25T07:21:38.316Z,8.80
2023-01-25T07:22:38.308Z,8.90
2023-01-25T07:23:38.507Z,9.10
2023-01-25T07:24:38.272Z,6.90
2023-01-25T07:25:38.274Z,9.90
2023-01-25T07:26:38.253Z,8.80
2023-01-25T07:27:38.254Z,8.90
2023-01-25T07:28:38.237Z,9.30
2023-01-25T07:29:38.229Z,7.00
2023-01-25T07:30:38.210Z,7.80
2023-01-25T07:31:38.261Z,8.20
2023-01-25T07:32:38.195Z,8.50
2023-01-25T07:33:38.196Z,9.30
2023-01-25T07:34:38.175Z,10.60
2023-01-25T07:35:38.169Z,7.80
2023-01-25T07:36:38.162Z,7.70
2023-01-25T07:37:38.149Z,7.50
2023-01-25T07:38:38.132Z,9.60
2023-01-25T07:39:38.133Z,7.10
2023-01-25T07:40:38.115Z,9.40
2023-01-25T07:41:38.119Z,7.60
2023-01-25T07:42:38.099Z,10.40
2023-01-25T07:43:38.087Z,8.10
2023-01-25T07:44:38.075Z,11.00
2023-01-25T07:45:38.073Z,9.90
2023-01-25T07:46:38.058Z,8.50
2023-01-25T07:47:38.080Z,8.50
2023-01-25T07:48:38.034Z,9.10
2023-01-25T07:49:38.025Z,9.70
2023-01-25T07:50:38.013Z,9.40
2023-01-25T07:51:38.041Z,10.20
2023-01-25T07:52:37.990Z,8.00
2023-01-25T07:53:37.987Z,11.30
2023-01-25T07:54:37.970Z,13.10
2023-01-25T07:55:37.969Z,12.20
2023-01-25T07:56:37.952Z,8.90
2023-01-25T07:57:37.951Z,10.50
2023-01-25T07:58:37.937Z,7.60
2023-01-25T07:59:37.924Z,8.50
2023-01-25T08:00:37.917Z,9.20
2023-01-25T08:01:37.925Z,7.80
2023-01-25T08:02:37.893Z,8.90
2023-01-25T08:03:37.897Z,8.60
2023-01-25T08:04:37.876Z,9.40
2023-01-25T08:05:39.491Z,8.60
2023-01-25T08:06:37.855Z,8.10
2023-01-25T08:07:37.849Z,8.10
2023-01-25T08:08:37.836Z,8.20
2023-01-25T08:09:37.828Z,9.30
2023-01-25T08:10:37.828Z,9.40
2023-01-25T08:11:37.821Z,9.60
2023-01-25T08:12:37.790Z,8.80
2023-01-25T08:13:37.800Z,9.50
2023-01-25T08:14:37.767Z,9.10
2023-01-25T08:15:37.762Z,12.10
2023-01-25T08:16:37.755Z,8.30
2023-01-25T08:17:37.739Z,8.20
2023-01-25T08:18:37.745Z,9.30
2023-01-25T08:19:37.723Z,7.60
2023-01-25T08:20:37.711Z,9.80
2023-01-25T08:21:37.711Z,7.60
2023-01-25T08:22:37.682Z,5.80
2023-01-25T08:23:37.682Z,8.50
2023-01-25T08:24:37.735Z,8.70
2023-01-25T08:25:37.665Z,8.40
2023-01-25T08:26:37.669Z,12.60
2023-01-25T08:27:37.661Z,10.20
2023-01-25T08:28:37.628Z,8.70
2023-01-25T08:29:37.623Z,8.80
2023-01-25T08:30:41.239Z,8.60
2023-01-25T08:31:37.661Z,7.60
2023-01-25T08:32:38.260Z,9.40
2023-01-25T08:33:37.585Z,12.30
2023-01-25T08:34:37.566Z,11.90
2023-01-25T08:35:37.556Z,9.10
2023-01-25T08:36:37.550Z,9.90
2023-01-25T08:37:37.549Z,8.50
2023-01-25T08:38:37.527Z,7.30
2023-01-25T08:39:37.527Z,9.20
2023-01-25T08:40:38.635Z,8.30
2023-01-25T08:41:37.516Z,7.30
2023-01-25T08:42:37.486Z,9.00
2023-01-25T08:43:37.484Z,9.60
2023-01-25T08:44:37.467Z,8.20
2023-01-25T08:45:37.458Z,8.80
2023-01-25T08:46:37.934Z,8.10
2023-01-25T08:47:37.437Z,8.70
2023-01-25T08:48:37.425Z,9.10
2023-01-25T08:49:37.417Z,8.80
2023-01-25T08:50:37.408Z,8.10
2023-01-25T08:51:37.453Z,10.10
2023-01-25T08:52:37.379Z,10.10
2023-01-25T08:53:37.386Z,9.30
2023-01-25T08:54:37.390Z,8.60
2023-01-25T08:55:37.353Z,8.30
2023-01-25T08:56:37.367Z,9.10
2023-01-25T08:57:37.339Z,7.50
2023-01-25T08:58:37.330Z,7.60
2023-01-25T08:59:37.326Z,10.20
2023-01-25T09:00:37.305Z,7.40
2023-01-25T09:01:37.308Z,9.40
2023-01-25T09:02:37.281Z,9.20
2023-01-25T09:03:37.297Z,9.00
2023-01-25T09:04:37.269Z,8.70
2023-01-25T09:05:37.255Z,10.50
2023-01-25T09:06:37.287Z,8.70
2023-01-25T09:07:37.233Z,9.90
2023-01-25T09:08:37.235Z,7.50
2023-01-25T09:09:37.235Z,8.70
2023-01-25T09:10:37.202Z,8.50
2023-01-25T09:11:37.316Z,9.30
2023-01-25T09:12:37.185Z,10.20
2023-01-25T09:13:37.177Z,9.50
2023-01-25T09:14:37.205Z,8.60
2023-01-25T09:15:37.162Z,8.70
2023-01-25T09:16:37.142Z,7.30
2023-01-25T09:17:37.138Z,8.00
2023-01-25T09:18:37.128Z,9.00
2023-01-25T09:19:37.112Z,8.10
2023-01-25T09:20:37.100Z,8.20
2023-01-25T09:21:37.136Z,8.20
2023-01-25T09:22:37.083Z,8.30
2023-01-25T09:23:50.309Z,9.40
2023-01-25T09:24:37.461Z,10.90
2023-01-25T09:25:37.055Z,7.70
2023-01-25T09:26:37.074Z,8.80
2023-01-25T09:27:37.039Z,9.10
2023-01-25T09:28:37.019Z,7.90
2023-01-25T09:29:39.594Z,8.40
2023-01-25T09:30:46.500Z,8.60
2023-01-25T09:31:37.179Z,11.00
2023-01-25T09:32:37.179Z,7.70
2023-01-25T09:33:36.978Z,9.10
2023-01-25T09:34:36.958Z,9.30
2023-01-25T09:35:36.950Z,10.50
2023-01-25T09:36:36.942Z,9.10
2023-01-25T09:37:36.947Z,8.20
2023-01-25T09:38:36.912Z,13.40
2023-01-25T09:39:36.908Z,11.00
2023-01-25T09:40:36.890Z,11.50
2023-01-25T09:41:36.888Z,13.00
2023-01-25T09:42:36.878Z,10.60
2023-01-25T09:43:36.867Z,11.60
2023-01-25T09:44:36.853Z,10.30
2023-01-25T09:45:36.849Z,9.90
2023-01-25T09:46:36.900Z,12.90
2023-01-25T09:47:36.856Z,9.80
2023-01-25T09:48:36.810Z,11.10
2023-01-25T09:49:36.812Z,10.50
2023-01-25T09:50:36.804Z,13.00
2023-01-25T09:51:36.792Z,10.10
2023-01-25T09:52:36.779Z,10.90
2023-01-25T09:53:36.770Z,9.70
2023-01-25T09:54:46.540Z,11.60
2023-01-25T09:55:36.761Z,10.50
2023-01-25T09:56:36.727Z,10.00
2023-01-25T09:57:36.740Z,10.30
2023-01-25T09:58:36.716Z,11.30
2023-01-25T09:59:36.704Z,9.70
2023-01-25T10:00:36.691Z,9.20
2023-01-25T10:01:39.208Z,9.60
2023-01-25T10:02:36.805Z,10.80
2023-01-25T10:03:36.665Z,10.00
2023-01-25T10:04:36.660Z,12.20
2023-01-25T10:05:36.640Z,12.00
2023-01-25T10:06:36.631Z,9.60
2023-01-25T10:07:36.630Z,9.60
2023-01-25T10:08:36.625Z,10.40
2023-01-25T10:09:36.606Z,9.10
2023-01-25T10:10:36.586Z,12.50
2023-01-25T10:11:36.575Z,11.40
2023-01-25T10:12:36.573Z,10.40
2023-01-25T10:13:36.559Z,10.70
2023-01-25T10:14:36.564Z,12.10
2023-01-25T10:15:36.544Z,10.30
2023-01-25T10:16:36.542Z,9.90
2023-01-25T10:17:36.540Z,10.00
2023-01-25T10:18:36.514Z,10.00
2023-01-25T10:19:36.495Z,11.20
2023-01-25T10:20:36.505Z,8.80
2023-01-25T10:21:36.482Z,11.00
2023-01-25T10:22:36.469Z,9.50
2023-01-25T10:23:36.454Z,10.50
2023-01-25T10:24:36.449Z,9.80
2023-01-25T10:25:36.470Z,8.90
2023-01-25T10:26:36.436Z,9.80
2023-01-25T10:27:36.633Z,8.40
2023-01-25T10:28:36.416Z,10.40
2023-01-25T10:29:36.404Z,11.10
2023-01-25T10:30:36.688Z,9.90
2023-01-25T10:31:36.401Z,8.90
2023-01-25T10:32:41.960Z,12.00
2023-01-25T10:33:38.005Z,10.50
2023-01-25T10:34:47.053Z,9.50
2023-01-25T10:35:39.064Z,9.20
2023-01-25T10:36:36.339Z,9.20
2023-01-25T10:37:36.432Z,10.70
2023-01-25T10:38:36.309Z,10.30
2023-01-25T10:39:36.294Z,8.70
2023-01-25T10:40:36.288Z,9.20
2023-01-25T10:41:36.277Z,10.20
2023-01-25T10:42:36.282Z,9.90
2023-01-25T10:43:36.250Z,8.40
2023-01-25T10:44:36.248Z,8.30
2023-01-25T10:45:36.240Z,10.20
2023-01-25T10:46:36.255Z,8.90
2023-01-25T10:47:36.324Z,11.50
2023-01-25T10:48:36.228Z,9.50
2023-01-25T10:49:36.191Z,9.30
2023-01-25T10:50:36.188Z,8.80
2023-01-25T10:51:36.171Z,10.00
2023-01-25T10:52:36.195Z,9.60
2023-01-25T10:53:36.146Z,10.50
2023-01-25T10:54:36.145Z,12.20
2023-01-25T10:55:36.135Z,12.20
2023-01-25T10:56:36.126Z,10.50
2023-01-25T10:57:36.118Z,9.80
2023-01-25T10:58:36.119Z,12.80
2023-01-25T10:59:36.092Z,10.50
2023-01-25T11:00:36.086Z,9.90
2023-01-25T11:01:36.175Z,11.50
2023-01-25T11:02:36.097Z,13.70
2023-01-25T11:03:36.062Z,12.70
2023-01-25T11:04:36.042Z,12.30
2023-01-25T11:05:36.033Z,13.70
2023-01-25T11:06:36.034Z,14.00
2023-01-25T11:07:36.007Z,15.60
2023-01-25T11:08:35.997Z,10.70
2023-01-25T11:09:35.990Z,11.50
2023-01-25T11:10:36.021Z,13.60
2023-01-25T11:11:35.985Z,13.30
2023-01-25T11:12:35.969Z,14.00
2023-01-25T11:13:35.952Z,15.00
2023-01-25T11:14:35.943Z,10.40
2023-01-25T11:15:35.956Z,11.80
2023-01-25T11:16:35.928Z,11.40
2023-01-25T11:17:35.907Z,11.80
2023-01-25T11:18:35.909Z,13.50
2023-01-25T11:19:35.885Z,12.60
2023-01-25T11:20:35.887Z,11.00
2023-01-25T11:21:35.879Z,11.40
2023-01-25T11:22:35.888Z,11.60
2023-01-25T11:23:35.855Z,11.40
2023-01-25T11:24:35.880Z,10.70
2023-01-25T11:25:35.834Z,11.90
2023-01-25T11:26:35.827Z,11.70
2023-01-25T11:27:35.804Z,14.90
2023-01-25T11:28:35.801Z,15.80
2023-01-25T11:29:35.789Z,15.80
2023-01-25T11:30:35.791Z,14.70
2023-01-25T11:31:35.800Z,13.20
2023-01-25T11:32:35.778Z,15.10
2023-01-25T11:33:35.751Z,13.90
2023-01-25T11:34:35.741Z,14.70
2023-01-25T11:35:35.726Z,12.00
2023-01-25T11:36:35.721Z,16.10
2023-01-25T11:37:35.729Z,14.10
2023-01-25T11:38:35.701Z,13.20
2023-01-25T11:39:35.687Z,13.20
2023-01-25T11:40:35.672Z,14.40
2023-01-25T11:41:35.670Z,14.40
2023-01-25T11:42:35.669Z,15.10
2023-01-25T11:43:35.642Z,14.20
2023-01-25T11:44:35.634Z,12.90
2023-01-25T11:45:35.722Z,15.30
2023-01-25T11:46:35.677Z,13.10
2023-01-25T11:47:35.615Z,13.00
2023-01-25T11:48:35.597Z,11.20
2023-01-25T11:49:35.578Z,16.20
2023-01-25T11:50:35.593Z,13.40
2023-01-25T11:51:35.561Z,11.50
2023-01-25T11:52:35.556Z,15.70
2023-01-25T11:53:35.554Z,13.40
2023-01-25T11:54:35.531Z,16.90
2023-01-25T11:55:35.522Z,17.60
2023-01-25T11:56:35.515Z,17.60
2023-01-25T11:57:35.524Z,17.50
2023-01-25T11:58:35.515Z,17.80
2023-01-25T11:59:35.478Z,16.60
2023-01-25T12:00:35.475Z,17.50
2023-01-25T12:01:35.487Z,17.80
2023-01-25T12:02:35.535Z,19.20
2023-01-25T12:03:35.494Z,15.50
2023-01-25T12:04:35.430Z,16.70
2023-01-25T12:05:35.415Z,15.50
2023-01-25T12:06:35.426Z,11.90
2023-01-25T12:07:35.394Z,15.60
2023-01-25T12:08:35.404Z,16.00
2023-01-25T12:09:35.379Z,13.80
2023-01-25T12:10:35.368Z,13.40
2023-01-25T12:11:35.355Z,11.10
2023-01-25T12:12:35.349Z,14.10
2023-01-25T12:13:35.342Z,15.40
2023-01-25T12:14:35.340Z,15.20
2023-01-25T12:15:35.315Z,16.60
2023-01-25T12:16:35.330Z,15.20
2023-01-25T12:17:35.300Z,18.60
2023-01-25T12:18:35.292Z,18.90
2023-01-25T12:19:35.271Z,12.20
2023-01-25T12:20:35.273Z,12.90
2023-01-25T12:21:35.257Z,15.10
2023-01-25T12:22:35.266Z,15.70
2023-01-25T12:23:35.234Z,13.80
2023-01-25T12:24:35.225Z,16.70
2023-01-25T12:25:35.219Z,15.50
2023-01-25T12:26:35.233Z,13.70
2023-01-25T12:27:35.203Z,13.70
2023-01-25T12:28:35.193Z,12.20
2023-01-25T12:29:35.176Z,13.10
2023-01-25T12:30:35.188Z,14.10
2023-01-25T12:31:35.251Z,15.40
2023-01-25T12:32:35.144Z,12.50
2023-01-25T12:33:35.138Z,14.80
2023-01-25T12:34:35.124Z,15.20
2023-01-25T12:35:35.113Z,14.60
2023-01-25T12:36:35.113Z,15.90
2023-01-25T12:37:35.092Z,14.20
2023-01-25T12:38:35.091Z,11.00
2023-01-25T12:39:35.072Z,11.30
2023-01-25T12:40:35.069Z,12.70
2023-01-25T12:41:35.062Z,13.80
2023-01-25T12:42:35.074Z,14.10
2023-01-25T12:43:35.030Z,12.30
2023-01-25T12:44:35.059Z,12.50
2023-01-25T12:45:35.019Z,13.40
2023-01-25T12:46:35.042Z,15.30
2023-01-25T12:47:34.987Z,16.30
2023-01-25T12:48:34.992Z,15.70
2023-01-25T12:49:34.967Z,14.10
2023-01-25T12:50:34.976Z,15.50
2023-01-25T12:51:34.944Z,15.70
2023-01-25T12:52:34.952Z,14.60
2023-01-25T12:53:34.936Z,15.40
2023-01-25T12:54:34.931Z,14.40
2023-01-25T12:55:34.917Z,12.40
2023-01-25T12:56:34.903Z,13.50
2023-01-25T12:57:34.887Z,13.10
2023-01-25T12:58:38.067Z,12.80
2023-01-25T12:59:34.870Z,13.80
2023-01-25T13:00:34.895Z,12.50
2023-01-25T13:01:34.844Z,15.50
2023-01-25T13:02:34.852Z,10.50
2023-01-25T13:03:34.834Z,15.50
2023-01-25T13:04:34.822Z,16.00
2023-01-25T13:05:34.802Z,10.70
2023-01-25T13:06:34.802Z,14.90
2023-01-25T13:07:34.824Z,16.60
2023-01-25T13:08:34.787Z,14.40
2023-01-25T13:09:34.763Z,15.40